sensor_id;sensor_type;location;lat;lon;timestamp;temperature;humidity
963;DHT22;469;48.770;9.176;2022-12-18T00:00:59;-7.00;1.00
963;DHT22;469;48.770;9.176;2022-12-18T00:03:26;-7.00;1.00
963;DHT22;469;48.770;9.176;2022-12-18T00:05:54;-7.00;1.00
963;DHT22;469;48.770;9.176;2022-12-18T00:08:21;-7.00;1.00
963;DHT22;469;48.770;9.176;2022-12-18T00:10:49;-7.00;1.00
963;DHT22;469;48.770;9.176;2022-12-18T00:13:16;-7.00;1.00
963;DHT22;469;48.770;9.176;2022-12-18T00:15:46;-6.90;1.00
963;DHT22;469;48.770;9.176;2022-12-18T00:18:14;-6.90;1.00
963;DHT22;469;48.770;9.176;2022-12-18T00:20:40;-7.00;1.00
963;DHT22;469;48.770;9.176;2022-12-18T00:23:07;-7.00;1.00
963;DHT22;469;48.770;9.176;2022-12-18T00:25:35;-7.00;1.00
963;DHT22;469;48.770;9.176;2022-12-18T00:28:03;-7.00;1.00
963;DHT22;469;48.770;9.176;2022-12-18T00:30:30;-6.90;1.00
963;DHT22;469;48.770;9.176;2022-12-18T00:32:57;-7.10;1.00
963;DHT22;469;48.770;9.176;2022-12-18T00:35:33;-7.00;1.00
963;DHT22;469;48.770;9.176;2022-12-18T00:38:09;-7.10;1.00
963;DHT22;469;48.770;9.176;2022-12-18T00:40:35;-6.90;1.00
963;DHT22;469;48.770;9.176;2022-12-18T00:43:03;-7.00;1.00
963;DHT22;469;48.770;9.176;2022-12-18T00:47:58;-6.80;1.00
963;DHT22;469;48.770;9.176;2022-12-18T00:50:25;-6.80;1.00
963;DHT22;469;48.770;9.176;2022-12-18T00:52:52;-6.80;1.00
963;DHT22;469;48.770;9.176;2022-12-18T00:55:19;-6.90;1.00
963;DHT22;469;48.770;9.176;2022-12-18T00:57:45;-6.70;1.00
963;DHT22;469;48.770;9.176;2022-12-18T01:00:14;-6.80;1.00
963;DHT22;469;48.770;9.176;2022-12-18T01:02:41;-6.90;1.00
963;DHT22;469;48.770;9.176;2022-12-18T01:05:10;-6.80;1.00
963;DHT22;469;48.770;9.176;2022-12-18T01:07:37;-6.90;1.00
963;DHT22;469;48.770;9.176;2022-12-18T01:10:05;-7.00;1.00
963;DHT22;469;48.770;9.176;2022-12-18T01:12:33;-6.70;1.00
963;DHT22;469;48.770;9.176;2022-12-18T01:15:00;-6.90;1.00
963;DHT22;469;48.770;9.176;2022-12-18T01:17:28;-6.70;1.00
963;DHT22;469;48.770;9.176;2022-12-18T01:19:54;-6.90;1.00
963;DHT22;469;48.770;9.176;2022-12-18T01:22:21;-6.70;1.00
963;DHT22;469;48.770;9.176;2022-12-18T01:24:48;-6.90;1.00
963;DHT22;469;48.770;9.176;2022-12-18T01:27:15;-6.60;1.00
963;DHT22;469;48.770;9.176;2022-12-18T01:29:42;-6.80;1.00
963;DHT22;469;48.770;9.176;2022-12-18T01:32:09;-6.60;1.00
963;DHT22;469;48.770;9.176;2022-12-18T01:34:37;-6.70;1.00
963;DHT22;469;48.770;9.176;2022-12-18T01:37:04;-6.60;1.00
963;DHT22;469;48.770;9.176;2022-12-18T01:39:32;-6.70;1.00
963;DHT22;469;48.770;9.176;2022-12-18T01:41:59;-6.80;1.00
963;DHT22;469;48.770;9.176;2022-12-18T01:44:58;-6.60;1.00
963;DHT22;469;48.770;9.176;2022-12-18T01:47:29;-6.60;1.00
963;DHT22;469;48.770;9.176;2022-12-18T01:50:02;-6.50;1.00
963;DHT22;469;48.770;9.176;2022-12-18T01:52:31;-6.70;1.00
963;DHT22;469;48.770;9.176;2022-12-18T01:54:59;-6.80;1.00
963;DHT22;469;48.770;9.176;2022-12-18T01:57:27;-6.60;1.00
963;DHT22;469;48.770;9.176;2022-12-18T01:59:59;-6.60;1.00
963;DHT22;469;48.770;9.176;2022-12-18T02:02:28;-6.60;1.00
963;DHT22;469;48.770;9.176;2022-12-18T02:04:55;-6.50;1.00
963;DHT22;469;48.770;9.176;2022-12-18T02:07:29;-6.70;1.00
963;DHT22;469;48.770;9.176;2022-12-18T02:10:02;-6.50;1.00
963;DHT22;469;48.770;9.176;2022-12-18T02:12:35;-6.70;1.00
963;DHT22;469;48.770;9.176;2022-12-18T02:15:10;-6.50;1.00
963;DHT22;469;48.770;9.176;2022-12-18T02:17:43;-6.50;1.00
963;DHT22;469;48.770;9.176;2022-12-18T02:20:16;-6.30;1.00
963;DHT22;469;48.770;9.176;2022-12-18T02:23:01;-6.40;1.00
963;DHT22;469;48.770;9.176;2022-12-18T02:28:41;-6.50;1.00
963;DHT22;469;48.770;9.176;2022-12-18T02:31:11;-6.20;1.00
963;DHT22;469;48.770;9.176;2022-12-18T02:33:42;-6.40;1.00
963;DHT22;469;48.770;9.176;2022-12-18T02:36:12;-6.50;1.00
963;DHT22;469;48.770;9.176;2022-12-18T02:38:40;-6.20;1.00
963;DHT22;469;48.770;9.176;2022-12-18T02:41:08;-6.20;1.00
963;DHT22;469;48.770;9.176;2022-12-18T02:43:34;-6.30;1.00
963;DHT22;469;48.770;9.176;2022-12-18T02:46:31;-6.40;1.00
963;DHT22;469;48.770;9.176;2022-12-18T02:49:05;-6.20;1.00
963;DHT22;469;48.770;9.176;2022-12-18T02:51:38;-6.30;1.00
963;DHT22;469;48.770;9.176;2022-12-18T02:54:10;-6.50;1.00
963;DHT22;469;48.770;9.176;2022-12-18T02:56:47;-6.50;1.00
963;DHT22;469;48.770;9.176;2022-12-18T02:59:18;-6.50;1.00
963;DHT22;469;48.770;9.176;2022-12-18T03:01:51;-6.20;1.00
963;DHT22;469;48.770;9.176;2022-12-18T03:04:23;-6.30;1.00
963;DHT22;469;48.770;9.176;2022-12-18T03:06:58;-6.50;1.00
963;DHT22;469;48.770;9.176;2022-12-18T03:09:31;-6.40;1.00
963;DHT22;469;48.770;9.176;2022-12-18T03:12:04;-6.30;1.00
963;DHT22;469;48.770;9.176;2022-12-18T03:14:54;-6.30;1.00
963;DHT22;469;48.770;9.176;2022-12-18T03:17:26;-6.40;1.00
963;DHT22;469;48.770;9.176;2022-12-18T03:19:57;-6.60;1.00
963;DHT22;469;48.770;9.176;2022-12-18T03:22:27;-6.60;1.00
963;DHT22;469;48.770;9.176;2022-12-18T03:24:57;-6.60;1.00
963;DHT22;469;48.770;9.176;2022-12-18T03:27:26;-6.60;1.00
963;DHT22;469;48.770;9.176;2022-12-18T03:29:58;-6.70;1.00
963;DHT22;469;48.770;9.176;2022-12-18T03:32:39;-6.70;1.00
963;DHT22;469;48.770;9.176;2022-12-18T03:35:08;-6.90;1.00
963;DHT22;469;48.770;9.176;2022-12-18T03:37:37;-6.70;1.00
963;DHT22;469;48.770;9.176;2022-12-18T03:40:05;-6.90;1.00
963;DHT22;469;48.770;9.176;2022-12-18T03:42:37;-6.70;1.00
963;DHT22;469;48.770;9.176;2022-12-18T03:45:09;-7.00;1.00
963;DHT22;469;48.770;9.176;2022-12-18T03:47:41;-7.00;1.00
963;DHT22;469;48.770;9.176;2022-12-18T03:50:14;-7.00;1.00
963;DHT22;469;48.770;9.176;2022-12-18T03:52:48;-7.00;1.00
963;DHT22;469;48.770;9.176;2022-12-18T03:55:18;-7.10;1.00
963;DHT22;469;48.770;9.176;2022-12-18T03:57:46;-6.90;1.00
963;DHT22;469;48.770;9.176;2022-12-18T04:00:16;-6.80;1.00
963;DHT22;469;48.770;9.176;2022-12-18T04:02:48;-6.80;1.00
963;DHT22;469;48.770;9.176;2022-12-18T04:05:18;-6.70;1.00
963;DHT22;469;48.770;9.176;2022-12-18T04:07:47;-6.70;1.00
963;DHT22;469;48.770;9.176;2022-12-18T04:10:16;-6.60;1.00
963;DHT22;469;48.770;9.176;2022-12-18T04:12:43;-6.50;1.00
963;DHT22;469;48.770;9.176;2022-12-18T04:15:11;-6.70;1.00
963;DHT22;469;48.770;9.176;2022-12-18T04:17:38;-6.60;1.00
963;DHT22;469;48.770;9.176;2022-12-18T04:20:08;-6.80;1.00
963;DHT22;469;48.770;9.176;2022-12-18T04:22:34;-6.80;1.00
963;DHT22;469;48.770;9.176;2022-12-18T04:25:02;-7.00;1.00
963;DHT22;469;48.770;9.176;2022-12-18T04:27:29;-6.80;1.00
963;DHT22;469;48.770;9.176;2022-12-18T04:29:55;-6.90;1.00
963;DHT22;469;48.770;9.176;2022-12-18T04:32:22;-7.00;1.00
963;DHT22;469;48.770;9.176;2022-12-18T04:34:49;-7.00;1.00
963;DHT22;469;48.770;9.176;2022-12-18T04:37:17;-7.00;1.00
963;DHT22;469;48.770;9.176;2022-12-18T04:39:44;-7.00;1.00
963;DHT22;469;48.770;9.176;2022-12-18T04:42:10;-7.00;1.00
963;DHT22;469;48.770;9.176;2022-12-18T04:44:37;-7.00;1.00
963;DHT22;469;48.770;9.176;2022-12-18T04:47:04;-6.90;1.00
963;DHT22;469;48.770;9.176;2022-12-18T04:49:31;-6.80;1.00
963;DHT22;469;48.770;9.176;2022-12-18T04:51:57;-6.90;1.00
963;DHT22;469;48.770;9.176;2022-12-18T04:54:25;-7.10;1.00
963;DHT22;469;48.770;9.176;2022-12-18T04:56:52;-6.90;1.00
963;DHT22;469;48.770;9.176;2022-12-18T04:59:19;-6.90;1.00
963;DHT22;469;48.770;9.176;2022-12-18T05:01:46;-7.10;1.00
963;DHT22;469;48.770;9.176;2022-12-18T05:04:12;-7.20;1.00
963;DHT22;469;48.770;9.176;2022-12-18T05:06:39;-7.30;1.00
963;DHT22;469;48.770;9.176;2022-12-18T05:09:06;-7.30;1.00
963;DHT22;469;48.770;9.176;2022-12-18T05:11:34;-7.20;1.00
963;DHT22;469;48.770;9.176;2022-12-18T05:14:00;-7.00;1.00
963;DHT22;469;48.770;9.176;2022-12-18T05:16:27;-7.30;1.00
963;DHT22;469;48.770;9.176;2022-12-18T05:18:54;-7.20;1.00
963;DHT22;469;48.770;9.176;2022-12-18T05:21:21;-7.40;1.00
963;DHT22;469;48.770;9.176;2022-12-18T05:23:47;-7.20;1.00
963;DHT22;469;48.770;9.176;2022-12-18T05:26:16;-7.10;1.00
963;DHT22;469;48.770;9.176;2022-12-18T05:28:45;-7.30;1.00
963;DHT22;469;48.770;9.176;2022-12-18T05:31:12;-7.40;1.00
963;DHT22;469;48.770;9.176;2022-12-18T05:33:39;-7.50;1.00
963;DHT22;469;48.770;9.176;2022-12-18T05:36:07;-7.60;1.00
963;DHT22;469;48.770;9.176;2022-12-18T05:38:37;-7.60;1.00
963;DHT22;469;48.770;9.176;2022-12-18T05:41:05;-7.60;1.00
963;DHT22;469;48.770;9.176;2022-12-18T05:43:34;-7.70;1.00
963;DHT22;469;48.770;9.176;2022-12-18T05:46:05;-7.60;1.00
963;DHT22;469;48.770;9.176;2022-12-18T05:48:32;-7.70;1.00
963;DHT22;469;48.770;9.176;2022-12-18T05:51:07;-7.70;1.00
963;DHT22;469;48.770;9.176;2022-12-18T05:53:35;-7.70;1.00
963;DHT22;469;48.770;9.176;2022-12-18T05:56:02;-7.90;1.00
963;DHT22;469;48.770;9.176;2022-12-18T05:58:30;-7.90;1.00
963;DHT22;469;48.770;9.176;2022-12-18T06:01:05;-7.90;1.00
963;DHT22;469;48.770;9.176;2022-12-18T06:03:33;-8.00;1.00
963;DHT22;469;48.770;9.176;2022-12-18T06:06:00;-8.10;1.00
963;DHT22;469;48.770;9.176;2022-12-18T06:08:27;-8.10;1.00
963;DHT22;469;48.770;9.176;2022-12-18T06:10:54;-8.20;1.00
963;DHT22;469;48.770;9.176;2022-12-18T06:13:21;-8.30;1.00
963;DHT22;469;48.770;9.176;2022-12-18T06:15:47;-8.20;1.00
963;DHT22;469;48.770;9.176;2022-12-18T06:18:16;-8.30;1.00
963;DHT22;469;48.770;9.176;2022-12-18T06:20:44;-8.30;1.00
963;DHT22;469;48.770;9.176;2022-12-18T06:23:11;-8.00;1.00
963;DHT22;469;48.770;9.176;2022-12-18T06:25:38;-8.30;1.00
963;DHT22;469;48.770;9.176;2022-12-18T06:28:05;-8.40;1.00
963;DHT22;469;48.770;9.176;2022-12-18T06:30:32;-8.50;1.00
963;DHT22;469;48.770;9.176;2022-12-18T06:32:59;-8.50;1.00
963;DHT22;469;48.770;9.176;2022-12-18T06:35:25;-8.60;1.00
963;DHT22;469;48.770;9.176;2022-12-18T06:37:56;-8.60;1.00
963;DHT22;469;48.770;9.176;2022-12-18T06:40:23;-8.50;1.00
963;DHT22;469;48.770;9.176;2022-12-18T06:42:50;-8.40;1.00
963;DHT22;469;48.770;9.176;2022-12-18T06:45:16;-8.60;1.00
963;DHT22;469;48.770;9.176;2022-12-18T07:57:28;-8.40;1.00
963;DHT22;469;48.770;9.176;2022-12-18T07:59:55;-8.10;1.00
963;DHT22;469;48.770;9.176;2022-12-18T08:02:22;-8.00;1.00
963;DHT22;469;48.770;9.176;2022-12-18T08:04:49;-8.20;1.00
963;DHT22;469;48.770;9.176;2022-12-18T08:07:16;-8.20;1.00
963;DHT22;469;48.770;9.176;2022-12-18T08:09:43;-8.30;1.00
963;DHT22;469;48.770;9.176;2022-12-18T08:12:09;-8.30;1.00
963;DHT22;469;48.770;9.176;2022-12-18T08:14:37;-8.30;1.00
963;DHT22;469;48.770;9.176;2022-12-18T08:17:04;-8.20;1.00
963;DHT22;469;48.770;9.176;2022-12-18T08:19:31;-8.20;1.00
963;DHT22;469;48.770;9.176;2022-12-18T08:21:57;-8.30;1.00
963;DHT22;469;48.770;9.176;2022-12-18T08:24:24;-8.20;1.00
963;DHT22;469;48.770;9.176;2022-12-18T08:26:51;-8.20;1.00
963;DHT22;469;48.770;9.176;2022-12-18T08:29:18;-8.10;1.00
963;DHT22;469;48.770;9.176;2022-12-18T08:31:49;-8.00;1.00
963;DHT22;469;48.770;9.176;2022-12-18T08:34:16;-7.70;1.00
963;DHT22;469;48.770;9.176;2022-12-18T08:36:42;-7.90;1.00
963;DHT22;469;48.770;9.176;2022-12-18T08:39:09;-7.90;1.00
963;DHT22;469;48.770;9.176;2022-12-18T08:41:36;-7.80;1.00
963;DHT22;469;48.770;9.176;2022-12-18T08:44:03;-7.40;1.00
963;DHT22;469;48.770;9.176;2022-12-18T08:46:49;-7.40;1.00
963;DHT22;469;48.770;9.176;2022-12-18T08:49:15;-7.50;1.00
963;DHT22;469;48.770;9.176;2022-12-18T08:51:42;-7.20;1.00
963;DHT22;469;48.770;9.176;2022-12-18T08:54:11;-7.10;1.00
963;DHT22;469;48.770;9.176;2022-12-18T08:56:38;-6.90;1.00
963;DHT22;469;48.770;9.176;2022-12-18T08:59:04;-7.00;1.00
963;DHT22;469;48.770;9.176;2022-12-18T09:01:31;-7.00;1.00
963;DHT22;469;48.770;9.176;2022-12-18T09:03:59;-6.80;1.00
963;DHT22;469;48.770;9.176;2022-12-18T09:06:26;-6.70;1.00
963;DHT22;469;48.770;9.176;2022-12-18T09:08:53;-6.70;1.00
963;DHT22;469;48.770;9.176;2022-12-18T09:11:21;-6.40;1.00
963;DHT22;469;48.770;9.176;2022-12-18T09:13:49;-6.30;1.00
963;DHT22;469;48.770;9.176;2022-12-18T09:16:16;-6.20;1.00
963;DHT22;469;48.770;9.176;2022-12-18T09:18:43;-6.00;1.00
963;DHT22;469;48.770;9.176;2022-12-18T09:21:14;-6.10;1.00
963;DHT22;469;48.770;9.176;2022-12-18T09:23:42;-6.10;1.00
963;DHT22;469;48.770;9.176;2022-12-18T09:26:09;-5.80;1.00
963;DHT22;469;48.770;9.176;2022-12-18T09:28:36;-5.80;1.00
963;DHT22;469;48.770;9.176;2022-12-18T09:31:05;-5.70;1.00
963;DHT22;469;48.770;9.176;2022-12-18T09:33:33;-5.70;1.00
963;DHT22;469;48.770;9.176;2022-12-18T09:36:01;-5.70;1.00
963;DHT22;469;48.770;9.176;2022-12-18T09:38:30;-5.60;1.00
963;DHT22;469;48.770;9.176;2022-12-18T09:41:03;-5.60;1.00
963;DHT22;469;48.770;9.176;2022-12-18T09:43:36;-5.30;1.00
963;DHT22;469;48.770;9.176;2022-12-18T09:46:09;-5.20;1.00
963;DHT22;469;48.770;9.176;2022-12-18T09:48:40;-5.10;1.00
963;DHT22;469;48.770;9.176;2022-12-18T09:51:13;-5.10;1.00
963;DHT22;469;48.770;9.176;2022-12-18T09:53:46;-4.80;1.00
963;DHT22;469;48.770;9.176;2022-12-18T09:56:17;-4.70;1.00
963;DHT22;469;48.770;9.176;2022-12-18T09:58:49;-4.70;1.00
963;DHT22;469;48.770;9.176;2022-12-18T10:01:21;-4.80;1.00
963;DHT22;469;48.770;9.176;2022-12-18T10:03:48;-4.70;1.00
963;DHT22;469;48.770;9.176;2022-12-18T10:06:20;-4.50;1.00
963;DHT22;469;48.770;9.176;2022-12-18T10:08:54;-4.50;1.00
963;DHT22;469;48.770;9.176;2022-12-18T10:11:37;-4.30;1.00
963;DHT22;469;48.770;9.176;2022-12-18T10:14:14;-4.40;1.00
963;DHT22;469;48.770;9.176;2022-12-18T10:16:49;-4.30;1.00
963;DHT22;469;48.770;9.176;2022-12-18T10:19:36;-4.20;1.00
963;DHT22;469;48.770;9.176;2022-12-18T10:22:22;-4.00;1.00
963;DHT22;469;48.770;9.176;2022-12-18T10:24:59;-4.00;1.00
963;DHT22;469;48.770;9.176;2022-12-18T10:27:27;-3.70;1.00
963;DHT22;469;48.770;9.176;2022-12-18T10:29:55;-3.50;1.00
963;DHT22;469;48.770;9.176;2022-12-18T10:32:23;-3.70;1.00
963;DHT22;469;48.770;9.176;2022-12-18T10:34:52;-3.30;1.00
963;DHT22;469;48.770;9.176;2022-12-18T10:37:22;-3.20;1.00
963;DHT22;469;48.770;9.176;2022-12-18T10:40:08;-3.20;1.00
963;DHT22;469;48.770;9.176;2022-12-18T10:42:35;-3.20;1.00
963;DHT22;469;48.770;9.176;2022-12-18T10:45:08;-3.00;1.00
963;DHT22;469;48.770;9.176;2022-12-18T10:47:35;-3.20;1.00
963;DHT22;469;48.770;9.176;2022-12-18T10:50:03;-2.90;1.00
963;DHT22;469;48.770;9.176;2022-12-18T10:52:30;-2.90;1.00
963;DHT22;469;48.770;9.176;2022-12-18T10:54:59;-2.70;1.00
963;DHT22;469;48.770;9.176;2022-12-18T10:57:33;-2.90;1.00
963;DHT22;469;48.770;9.176;2022-12-18T11:00:20;-2.90;1.00
963;DHT22;469;48.770;9.176;2022-12-18T11:02:47;-2.80;1.00
963;DHT22;469;48.770;9.176;2022-12-18T11:05:26;-2.40;1.00
963;DHT22;469;48.770;9.176;2022-12-18T11:07:56;-2.20;1.00
963;DHT22;469;48.770;9.176;2022-12-18T11:10:28;-2.30;1.00
963;DHT22;469;48.770;9.176;2022-12-18T11:13:12;-2.20;1.00
963;DHT22;469;48.770;9.176;2022-12-18T11:15:42;-2.20;1.00
963;DHT22;469;48.770;9.176;2022-12-18T11:18:17;-2.30;1.00
963;DHT22;469;48.770;9.176;2022-12-18T11:20:51;-2.20;1.00
963;DHT22;469;48.770;9.176;2022-12-18T11:23:19;-2.10;1.00
963;DHT22;469;48.770;9.176;2022-12-18T11:25:53;-2.00;1.00
963;DHT22;469;48.770;9.176;2022-12-18T11:28:35;-2.00;1.00
963;DHT22;469;48.770;9.176;2022-12-18T11:31:23;-1.90;1.00
963;DHT22;469;48.770;9.176;2022-12-18T11:33:58;-1.80;1.00
963;DHT22;469;48.770;9.176;2022-12-18T11:36:33;-1.80;1.00
963;DHT22;469;48.770;9.176;2022-12-18T11:39:10;-1.70;1.00
963;DHT22;469;48.770;9.176;2022-12-18T11:41:43;-1.60;1.00
963;DHT22;469;48.770;9.176;2022-12-18T11:44:38;-1.60;1.00
963;DHT22;469;48.770;9.176;2022-12-18T11:47:11;-1.50;1.00
963;DHT22;469;48.770;9.176;2022-12-18T11:49:41;-1.50;1.00
963;DHT22;469;48.770;9.176;2022-12-18T11:52:16;-1.50;1.00
963;DHT22;469;48.770;9.176;2022-12-18T11:54:45;-1.40;1.00
963;DHT22;469;48.770;9.176;2022-12-18T11:57:19;-1.40;1.00
963;DHT22;469;48.770;9.176;2022-12-18T11:59:58;-1.10;1.00
963;DHT22;469;48.770;9.176;2022-12-18T12:02:42;-1.00;1.00
963;DHT22;469;48.770;9.176;2022-12-18T12:05:25;-1.00;1.00
963;DHT22;469;48.770;9.176;2022-12-18T12:08:02;-1.00;1.00
963;DHT22;469;48.770;9.176;2022-12-18T12:10:41;-0.90;1.00
963;DHT22;469;48.770;9.176;2022-12-18T12:13:23;-1.00;1.00
963;DHT22;469;48.770;9.176;2022-12-18T12:16:04;-1.00;1.00
963;DHT22;469;48.770;9.176;2022-12-18T12:18:41;-1.00;1.00
963;DHT22;469;48.770;9.176;2022-12-18T12:21:15;-0.90;1.00
963;DHT22;469;48.770;9.176;2022-12-18T12:23:51;-1.00;1.00
963;DHT22;469;48.770;9.176;2022-12-18T12:26:23;-0.90;1.00
963;DHT22;469;48.770;9.176;2022-12-18T12:29:13;-0.90;1.00
963;DHT22;469;48.770;9.176;2022-12-18T12:32:03;-0.80;1.00
963;DHT22;469;48.770;9.176;2022-12-18T12:34:36;-0.70;1.00
963;DHT22;469;48.770;9.176;2022-12-18T12:37:15;-0.50;1.00
963;DHT22;469;48.770;9.176;2022-12-18T12:39:47;-0.50;1.00
963;DHT22;469;48.770;9.176;2022-12-18T12:42:18;-0.30;1.00
963;DHT22;469;48.770;9.176;2022-12-18T12:45:05;-0.20;1.00
963;DHT22;469;48.770;9.176;2022-12-18T12:47:38;-0.20;1.00
963;DHT22;469;48.770;9.176;2022-12-18T12:50:14;-0.20;1.00
963;DHT22;469;48.770;9.176;2022-12-18T12:52:45;-0.10;1.00
963;DHT22;469;48.770;9.176;2022-12-18T12:55:16;0.00;1.00
963;DHT22;469;48.770;9.176;2022-12-18T12:57:48;0.00;1.00
963;DHT22;469;48.770;9.176;2022-12-18T13:00:19;-0.10;1.00
963;DHT22;469;48.770;9.176;2022-12-18T13:02:54;-0.20;1.00
963;DHT22;469;48.770;9.176;2022-12-18T13:05:26;-0.20;1.00
963;DHT22;469;48.770;9.176;2022-12-18T13:07:57;-0.30;1.00
963;DHT22;469;48.770;9.176;2022-12-18T13:10:33;-0.50;1.00
963;DHT22;469;48.770;9.176;2022-12-18T13:13:02;-0.60;1.00
963;DHT22;469;48.770;9.176;2022-12-18T13:15:33;-0.50;1.00
963;DHT22;469;48.770;9.176;2022-12-18T13:18:14;-0.60;1.00
963;DHT22;469;48.770;9.176;2022-12-18T13:20:43;-0.60;1.00
963;DHT22;469;48.770;9.176;2022-12-18T13:23:29;-0.60;1.00
963;DHT22;469;48.770;9.176;2022-12-18T13:25:58;-0.60;1.00
963;DHT22;469;48.770;9.176;2022-12-18T13:28:50;-0.50;1.00
963;DHT22;469;48.770;9.176;2022-12-18T13:31:58;-0.40;1.00
963;DHT22;469;48.770;9.176;2022-12-18T13:34:28;-0.30;1.00
963;DHT22;469;48.770;9.176;2022-12-18T13:36:57;-0.30;1.00
963;DHT22;469;48.770;9.176;2022-12-18T13:39:43;-0.30;1.00
963;DHT22;469;48.770;9.176;2022-12-18T13:42:36;-0.40;1.00
963;DHT22;469;48.770;9.176;2022-12-18T13:45:43;-0.50;1.00
963;DHT22;469;48.770;9.176;2022-12-18T13:48:19;-0.40;1.00
963;DHT22;469;48.770;9.176;2022-12-18T13:50:58;-0.30;1.00
963;DHT22;469;48.770;9.176;2022-12-18T13:53:28;-0.30;1.00
963;DHT22;469;48.770;9.176;2022-12-18T13:56:07;-0.20;1.00
963;DHT22;469;48.770;9.176;2022-12-18T13:58:37;-0.20;1.00
963;DHT22;469;48.770;9.176;2022-12-18T14:01:04;-0.30;1.00
963;DHT22;469;48.770;9.176;2022-12-18T14:03:31;-0.20;1.00
963;DHT22;469;48.770;9.176;2022-12-18T14:06:03;-0.20;1.00
963;DHT22;469;48.770;9.176;2022-12-18T14:08:36;0.00;1.00
963;DHT22;469;48.770;9.176;2022-12-18T14:11:06;0.00;1.00
963;DHT22;469;48.770;9.176;2022-12-18T14:13:36;0.00;1.00
963;DHT22;469;48.770;9.176;2022-12-18T14:16:05;0.10;1.00
963;DHT22;469;48.770;9.176;2022-12-18T14:18:41;0.10;1.00
963;DHT22;469;48.770;9.176;2022-12-18T14:21:18;0.10;1.00
963;DHT22;469;48.770;9.176;2022-12-18T14:23:46;0.10;1.00
963;DHT22;469;48.770;9.176;2022-12-18T14:26:22;0.00;1.00
963;DHT22;469;48.770;9.176;2022-12-18T14:28:50;0.00;1.00
963;DHT22;469;48.770;9.176;2022-12-18T14:31:20;0.00;1.00
963;DHT22;469;48.770;9.176;2022-12-18T14:33:48;0.00;1.00
963;DHT22;469;48.770;9.176;2022-12-18T14:36:18;-0.10;1.00
963;DHT22;469;48.770;9.176;2022-12-18T14:38:49;-0.20;1.00
963;DHT22;469;48.770;9.176;2022-12-18T14:41:18;-0.30;1.00
963;DHT22;469;48.770;9.176;2022-12-18T14:43:49;-0.30;1.00
963;DHT22;469;48.770;9.176;2022-12-18T14:46:29;-0.30;1.00
963;DHT22;469;48.770;9.176;2022-12-18T14:48:59;-0.40;1.00
963;DHT22;469;48.770;9.176;2022-12-18T14:51:29;-0.50;1.00
963;DHT22;469;48.770;9.176;2022-12-18T14:53:57;-0.50;1.00
963;DHT22;469;48.770;9.176;2022-12-18T14:56:29;-0.50;1.00
963;DHT22;469;48.770;9.176;2022-12-18T14:58:58;-0.60;1.00
963;DHT22;469;48.770;9.176;2022-12-18T15:01:29;-0.70;1.00
963;DHT22;469;48.770;9.176;2022-12-18T15:04:00;-0.90;1.00
963;DHT22;469;48.770;9.176;2022-12-18T15:06:33;-1.00;1.00
963;DHT22;469;48.770;9.176;2022-12-18T15:09:03;-1.00;1.00
963;DHT22;469;48.770;9.176;2022-12-18T15:11:42;-1.30;1.00
963;DHT22;469;48.770;9.176;2022-12-18T15:14:38;-1.40;1.00
963;DHT22;469;48.770;9.176;2022-12-18T15:17:16;-1.40;1.00
963;DHT22;469;48.770;9.176;2022-12-18T15:19:48;-1.50;1.00
963;DHT22;469;48.770;9.176;2022-12-18T15:22:36;-1.70;1.00
963;DHT22;469;48.770;9.176;2022-12-18T15:25:24;-1.60;1.00
963;DHT22;469;48.770;9.176;2022-12-18T15:27:58;-1.70;1.00
963;DHT22;469;48.770;9.176;2022-12-18T15:30:27;-1.70;1.00
963;DHT22;469;48.770;9.176;2022-12-18T15:33:22;-1.70;1.00
963;DHT22;469;48.770;9.176;2022-12-18T15:35:56;-1.70;1.00
963;DHT22;469;48.770;9.176;2022-12-18T15:38:26;-1.80;1.00
963;DHT22;469;48.770;9.176;2022-12-18T15:40:54;-1.80;1.00
963;DHT22;469;48.770;9.176;2022-12-18T15:43:27;-1.80;1.00
963;DHT22;469;48.770;9.176;2022-12-18T15:46:03;-1.80;1.00
963;DHT22;469;48.770;9.176;2022-12-18T15:48:49;-1.80;1.00
963;DHT22;469;48.770;9.176;2022-12-18T15:54:08;-2.00;1.00
963;DHT22;469;48.770;9.176;2022-12-18T15:56:36;-2.10;1.00
963;DHT22;469;48.770;9.176;2022-12-18T15:59:22;-2.10;1.00
963;DHT22;469;48.770;9.176;2022-12-18T16:01:50;-2.10;1.00
963;DHT22;469;48.770;9.176;2022-12-18T16:04:21;-2.10;1.00
963;DHT22;469;48.770;9.176;2022-12-18T16:06:48;-2.10;1.00
963;DHT22;469;48.770;9.176;2022-12-18T16:09:16;-2.10;1.00
963;DHT22;469;48.770;9.176;2022-12-18T16:11:46;-2.20;1.00
963;DHT22;469;48.770;9.176;2022-12-18T16:14:19;-2.20;1.00
963;DHT22;469;48.770;9.176;2022-12-18T16:16:52;-2.20;1.00
963;DHT22;469;48.770;9.176;2022-12-18T16:19:32;-2.20;1.00
963;DHT22;469;48.770;9.176;2022-12-18T16:22:08;-2.20;1.00
963;DHT22;469;48.770;9.176;2022-12-18T16:24:43;-2.20;1.00
963;DHT22;469;48.770;9.176;2022-12-18T16:27:10;-2.20;1.00
963;DHT22;469;48.770;9.176;2022-12-18T16:29:37;-1.90;1.00
963;DHT22;469;48.770;9.176;2022-12-18T16:32:04;-2.10;1.00
963;DHT22;469;48.770;9.176;2022-12-18T16:34:34;-2.00;1.00
963;DHT22;469;48.770;9.176;2022-12-18T16:37:03;-2.10;1.00
963;DHT22;469;48.770;9.176;2022-12-18T16:39:31;-2.10;1.00
963;DHT22;469;48.770;9.176;2022-12-18T16:42:26;-2.10;1.00
963;DHT22;469;48.770;9.176;2022-12-18T16:44:55;-2.00;1.00
963;DHT22;469;48.770;9.176;2022-12-18T16:47:22;-2.10;1.00
963;DHT22;469;48.770;9.176;2022-12-18T16:49:49;-2.00;1.00
963;DHT22;469;48.770;9.176;2022-12-18T16:52:18;-2.10;1.00
963;DHT22;469;48.770;9.176;2022-12-18T16:54:44;-2.10;1.00
963;DHT22;469;48.770;9.176;2022-12-18T16:57:36;-2.00;1.00
963;DHT22;469;48.770;9.176;2022-12-18T17:00:34;-2.00;1.00
963;DHT22;469;48.770;9.176;2022-12-18T17:03:21;-2.00;1.00
963;DHT22;469;48.770;9.176;2022-12-18T17:05:47;-1.80;1.00
963;DHT22;469;48.770;9.176;2022-12-18T17:08:17;-1.90;1.00
963;DHT22;469;48.770;9.176;2022-12-18T17:10:48;-1.90;1.00
963;DHT22;469;48.770;9.176;2022-12-18T17:13:20;-1.90;1.00
963;DHT22;469;48.770;9.176;2022-12-18T17:15:50;-1.80;1.00
963;DHT22;469;48.770;9.176;2022-12-18T17:18:17;-1.80;1.00
963;DHT22;469;48.770;9.176;2022-12-18T17:20:43;-1.80;1.00
963;DHT22;469;48.770;9.176;2022-12-18T17:23:10;-1.70;1.00
963;DHT22;469;48.770;9.176;2022-12-18T17:25:38;-1.70;1.00
963;DHT22;469;48.770;9.176;2022-12-18T17:28:10;-1.70;1.00
963;DHT22;469;48.770;9.176;2022-12-18T17:30:39;-1.70;1.00
963;DHT22;469;48.770;9.176;2022-12-18T17:33:06;-1.60;1.00
963;DHT22;469;48.770;9.176;2022-12-18T17:35:43;-1.60;1.00
963;DHT22;469;48.770;9.176;2022-12-18T17:38:24;-1.60;1.00
963;DHT22;469;48.770;9.176;2022-12-18T17:40:54;-1.40;1.00
963;DHT22;469;48.770;9.176;2022-12-18T17:43:37;-1.50;1.00
963;DHT22;469;48.770;9.176;2022-12-18T17:49:04;-1.50;1.00
963;DHT22;469;48.770;9.176;2022-12-18T17:51:37;-1.50;1.00
963;DHT22;469;48.770;9.176;2022-12-18T17:54:13;-1.50;1.00
963;DHT22;469;48.770;9.176;2022-12-18T17:56:43;-1.40;1.00
963;DHT22;469;48.770;9.176;2022-12-18T17:59:13;-1.40;1.00
963;DHT22;469;48.770;9.176;2022-12-18T18:01:53;-1.40;1.00
963;DHT22;469;48.770;9.176;2022-12-18T18:04:23;-1.20;1.00
963;DHT22;469;48.770;9.176;2022-12-18T18:06:55;-1.20;1.00
963;DHT22;469;48.770;9.176;2022-12-18T18:09:26;-1.50;1.00
963;DHT22;469;48.770;9.176;2022-12-18T18:12:00;-1.50;1.00
963;DHT22;469;48.770;9.176;2022-12-18T18:14:44;-1.50;1.00
963;DHT22;469;48.770;9.176;2022-12-18T18:17:13;-1.50;1.00
963;DHT22;469;48.770;9.176;2022-12-18T18:19:43;-1.40;1.00
963;DHT22;469;48.770;9.176;2022-12-18T18:22:16;-1.40;1.00
963;DHT22;469;48.770;9.176;2022-12-18T18:24:44;-1.40;1.00
963;DHT22;469;48.770;9.176;2022-12-18T18:27:13;-1.40;1.00
963;DHT22;469;48.770;9.176;2022-12-18T18:29:45;-1.30;1.00
963;DHT22;469;48.770;9.176;2022-12-18T18:32:20;-1.40;1.00
963;DHT22;469;48.770;9.176;2022-12-18T18:34:49;-1.20;1.00
963;DHT22;469;48.770;9.176;2022-12-18T18:37:16;-1.30;1.00
963;DHT22;469;48.770;9.176;2022-12-18T18:39:52;-1.30;1.00
963;DHT22;469;48.770;9.176;2022-12-18T18:42:24;-1.30;1.00